Time;durP1;ratioP1;P1;durP2;ratioP2;P2;SDS_P1;SDS_P2;PMS_P1;PMS_P2;Temp;Humidity;BMP_temperature;BMP_pressure;BME280_temperature;BME280_humidity;BME280_pressure;Samples;Min_cycle;Max_cycle;Signal;HPM_P1;HPM_P2
2022/11/18 00:01:17;;;;;;;2.55;1.42;;;;;;;;;;5037592;28;20205;-74
2022/11/18 00:03:46;;;;;;;1.60;1.50;;;;;;;;;;5037784;28;20618;-74
2022/11/18 00:06:15;;;;;;;1.23;1.13;;;;;;;;;;5037582;28;20583;-75
2022/11/18 00:08:43;;;;;;;1.35;1.25;;;;;;;;;;5055963;28;20302;-74
2022/11/18 00:14:17;;;;;;;1.40;1.30;;;;;;;;;;5057277;28;20236;-75
2022/11/18 00:16:45;;;;;;;1.60;1.50;;;;;;;;;;5057745;28;20196;-75
2022/11/18 00:19:14;;;;;;;1.50;1.30;;;;;;;;;;5057573;28;20205;-75
2022/11/18 00:21:42;;;;;;;1.23;1.13;;;;;;;;;;5057511;28;20243;-75
2022/11/18 00:24:09;;;;;;;1.45;1.35;;;;;;;;;;5057339;28;20255;-75
2022/11/18 00:26:37;;;;;;;1.20;1.10;;;;;;;;;;5057469;28;20303;-74
2022/11/18 00:29:05;;;;;;;1.40;1.30;;;;;;;;;;5057401;28;20248;-74
2022/11/18 00:31:32;;;;;;;1.45;1.35;;;;;;;;;;5057356;28;20239;-75
2022/11/18 00:34:00;;;;;;;1.40;1.30;;;;;;;;;;5054550;28;20586;-74
2022/11/18 00:36:30;;;;;;;1.40;1.30;;;;;;;;;;5042978;28;20208;-75
2022/11/18 00:38:58;;;;;;;1.48;1.35;;;;;;;;;;5056711;28;20209;-75
2022/11/18 00:42:50;;;;;;;1.35;1.25;;;;;;;;;;5057476;28;20223;-74
2022/11/18 00:44:13;;;;;;;1.38;1.27;;;;;;;;;;5056915;28;20205;-74
2022/11/18 00:46:40;;;;;;;1.25;1.15;;;;;;;;;;5057875;28;20208;-75
2022/11/18 00:49:08;;;;;;;1.30;1.20;;;;;;;;;;5056688;28;20560;-75
2022/11/18 00:51:37;;;;;;;1.70;1.50;;;;;;;;;;5057091;28;20233;-74
2022/11/18 00:54:05;;;;;;;1.40;1.30;;;;;;;;;;5056645;28;20201;-75
2022/11/18 00:56:33;;;;;;;1.88;1.35;;;;;;;;;;5056869;28;20236;-75
2022/11/18 00:59:01;;;;;;;1.52;1.42;;;;;;;;;;5057015;28;20228;-74
2022/11/18 01:01:28;;;;;;;1.40;1.30;;;;;;;;;;5056033;28;20205;-74
2022/11/18 01:03:56;;;;;;;1.40;1.30;;;;;;;;;;5036957;28;20202;-75
2022/11/18 01:06:24;;;;;;;1.60;1.50;;;;;;;;;;5037092;28;20271;-74
2022/11/18 01:08:53;;;;;;;1.48;1.38;;;;;;;;;;5037122;28;20217;-74
2022/11/18 01:14:06;;;;;;;1.52;1.42;;;;;;;;;;5036937;28;20339;-74
2022/11/18 01:16:33;;;;;;;1.67;1.50;;;;;;;;;;5037511;28;20499;-75
2022/11/18 01:19:01;;;;;;;1.75;1.65;;;;;;;;;;5036798;28;20614;-75
2022/11/18 01:21:29;;;;;;;1.75;1.58;;;;;;;;;;5037138;28;20202;-74
2022/11/18 01:23:58;;;;;;;2.45;1.70;;;;;;;;;;5037010;28;20671;-74
2022/11/18 01:26:26;;;;;;;1.65;1.50;;;;;;;;;;5037115;28;20287;-74
2022/11/18 01:28:56;;;;;;;1.60;1.50;;;;;;;;;;5036881;28;20496;-75
2022/11/18 01:31:24;;;;;;;1.60;1.50;;;;;;;;;;5056058;28;20232;-75
2022/11/18 01:33:52;;;;;;;2.42;1.60;;;;;;;;;;5057063;28;20594;-75
2022/11/18 01:36:21;;;;;;;2.45;1.50;;;;;;;;;;5057155;28;20211;-75
2022/11/18 01:38:49;;;;;;;1.70;1.60;;;;;;;;;;5056848;28;20250;-75
2022/11/18 01:41:18;;;;;;;2.25;1.73;;;;;;;;;;5056431;28;20657;-75
2022/11/18 01:43:51;;;;;;;1.73;1.63;;;;;;;;;;5056943;28;20502;-74
2022/11/18 01:46:19;;;;;;;1.98;1.70;;;;;;;;;;5056890;28;20275;-76
2022/11/18 01:48:49;;;;;;;2.10;1.90;;;;;;;;;;5056593;28;20212;-75
2022/11/18 01:51:17;;;;;;;1.70;1.60;;;;;;;;;;5059823;28;20259;-75
2022/11/18 01:53:46;;;;;;;2.25;1.50;;;;;;;;;;5060296;28;20248;-75
2022/11/18 01:56:15;;;;;;;1.92;1.73;;;;;;;;;;5060323;28;20204;-75
2022/11/18 01:58:47;;;;;;;1.88;1.65;;;;;;;;;;5059531;28;20606;-75
2022/11/18 02:01:15;;;;;;;2.08;1.73;;;;;;;;;;5060333;28;20605;-74
2022/11/18 02:03:43;;;;;;;1.80;1.45;;;;;;;;;;5060320;28;20624;-74
2022/11/18 02:06:12;;;;;;;2.10;1.90;;;;;;;;;;5060385;28;20211;-74
2022/11/18 02:08:40;;;;;;;1.92;1.70;;;;;;;;;;5059924;28;20601;-74
2022/11/18 02:11:49;;;;;;;1.88;1.60;;;;;;;;;;5059745;28;20267;-74
2022/11/18 02:14:01;;;;;;;1.70;1.50;;;;;;;;;;5059277;28;20524;-74
2022/11/18 02:16:33;;;;;;;1.70;1.60;;;;;;;;;;5060351;28;20596;-74
2022/11/18 02:19:02;;;;;;;1.70;1.60;;;;;;;;;;5060556;28;20266;-74
2022/11/18 02:21:34;;;;;;;1.80;1.70;;;;;;;;;;5060035;28;20214;-74
2022/11/18 02:24:20;;;;;;;1.85;1.75;;;;;;;;;;5057779;28;20271;-74
2022/11/18 02:27:06;;;;;;;1.70;1.60;;;;;;;;;;5040110;28;20580;-74
2022/11/18 02:29:36;;;;;;;1.80;1.70;;;;;;;;;;5040001;28;20217;-74
2022/11/18 02:32:08;;;;;;;1.75;1.58;;;;;;;;;;5039662;28;20229;-74
2022/11/18 02:34:41;;;;;;;1.70;1.60;;;;;;;;;;5040217;28;20216;-74
2022/11/18 02:37:14;;;;;;;2.70;1.60;;;;;;;;;;5040277;28;20553;-74
2022/11/18 02:39:46;;;;;;;1.80;1.70;;;;;;;;;;5039493;28;20582;-74
2022/11/18 02:42:15;;;;;;;1.70;1.60;;;;;;;;;;5039578;28;20197;-74
2022/11/18 02:44:47;;;;;;;2.00;1.67;;;;;;;;;;5039415;28;20205;-74
2022/11/18 02:47:16;;;;;;;1.65;1.55;;;;;;;;;;5039749;28;20221;-74
2022/11/18 02:49:45;;;;;;;2.10;1.70;;;;;;;;;;5039840;28;20498;-74
2022/11/18 02:52:14;;;;;;;1.70;1.60;;;;;;;;;;5048057;28;20523;-75
2022/11/18 02:54:43;;;;;;;1.48;1.38;;;;;;;;;;5059392;28;20251;-76
2022/11/18 02:57:11;;;;;;;1.73;1.63;;;;;;;;;;5060011;28;20205;-76
2022/11/18 02:59:38;;;;;;;1.73;1.63;;;;;;;;;;5059883;28;20272;-76
2022/11/18 03:02:07;;;;;;;1.90;1.70;;;;;;;;;;5058627;28;20201;-76
2022/11/18 03:04:35;;;;;;;2.20;2.00;;;;;;;;;;5060206;28;20266;-76
2022/11/18 03:07:06;;;;;;;1.70;1.60;;;;;;;;;;5059285;28;20260;-76
2022/11/18 03:09:36;;;;;;;1.77;1.67;;;;;;;;;;5059479;28;20204;-76
2022/11/18 03:12:08;;;;;;;2.35;1.83;;;;;;;;;;5055196;28;20355;-75
2022/11/18 03:14:39;;;;;;;1.60;1.50;;;;;;;;;;5059226;28;20207;-75
2022/11/18 03:17:11;;;;;;;1.85;1.75;;;;;;;;;;5058690;28;20240;-75
2022/11/18 03:19:46;;;;;;;1.67;1.58;;;;;;;;;;5058815;28;20492;-76
2022/11/18 03:22:17;;;;;;;1.88;1.77;;;;;;;;;;5049713;28;20228;-76
2022/11/18 03:24:48;;;;;;;1.60;1.50;;;;;;;;;;5038632;28;20214;-76
2022/11/18 03:27:17;;;;;;;1.60;1.50;;;;;;;;;;5039104;28;20233;-75
2022/11/18 03:29:49;;;;;;;1.88;1.77;;;;;;;;;;5038803;28;20206;-76
2022/11/18 03:32:21;;;;;;;1.60;1.50;;;;;;;;;;5038559;28;20629;-76
2022/11/18 03:34:50;;;;;;;1.50;1.40;;;;;;;;;;5038763;28;20233;-76
2022/11/18 03:37:19;;;;;;;1.55;1.45;;;;;;;;;;5040604;28;20212;-75
2022/11/18 03:39:48;;;;;;;1.67;1.58;;;;;;;;;;5058796;28;20204;-76
2022/11/18 03:42:18;;;;;;;1.60;1.50;;;;;;;;;;5058794;28;20263;-76
2022/11/18 03:44:48;;;;;;;1.55;1.45;;;;;;;;;;5058437;28;20806;-75
2022/11/18 03:47:18;;;;;;;1.77;1.67;;;;;;;;;;5058620;28;20205;-76
2022/11/18 03:49:51;;;;;;;1.80;1.70;;;;;;;;;;5058323;28;20204;-76
2022/11/18 03:52:20;;;;;;;1.67;1.58;;;;;;;;;;5058280;28;20228;-75
2022/11/18 03:54:49;;;;;;;1.63;1.52;;;;;;;;;;5058037;28;20558;-75
2022/11/18 03:57:19;;;;;;;1.60;1.50;;;;;;;;;;5057638;28;20304;-75
2022/11/18 03:59:49;;;;;;;1.75;1.65;;;;;;;;;;5057765;28;20245;-75
2022/11/18 04:02:18;;;;;;;1.65;1.50;;;;;;;;;;5057997;28;20212;-75
2022/11/18 04:04:50;;;;;;;1.50;1.40;;;;;;;;;;5057020;28;20652;-75
2022/11/18 04:07:22;;;;;;;1.70;1.60;;;;;;;;;;5037872;28;20213;-75
2022/11/18 04:09:55;;;;;;;1.55;1.45;;;;;;;;;;5038114;28;20335;-75
2022/11/18 04:12:24;;;;;;;1.60;1.50;;;;;;;;;;5036591;28;20268;-75
2022/11/18 04:14:54;;;;;;;1.63;1.52;;;;;;;;;;5037168;28;20202;-74
2022/11/18 04:17:22;;;;;;;1.67;1.58;;;;;;;;;;5037532;28;20205;-74
2022/11/18 04:19:52;;;;;;;2.00;1.75;;;;;;;;;;5037883;28;20206;-75
2022/11/18 04:22:20;;;;;;;1.80;1.70;;;;;;;;;;5037350;28;20296;-74
2022/11/18 04:24:48;;;;;;;1.70;1.60;;;;;;;;;;5037625;28;20643;-75
2022/11/18 04:27:16;;;;;;;1.40;1.30;;;;;;;;;;5037616;28;20579;-75
2022/11/18 04:29:44;;;;;;;1.50;1.40;;;;;;;;;;5037298;28;20209;-75
2022/11/18 04:32:11;;;;;;;1.65;1.40;;;;;;;;;;5039603;28;20241;-74
2022/11/18 04:34:39;;;;;;;1.50;1.40;;;;;;;;;;5057302;28;20633;-74
2022/11/18 04:37:09;;;;;;;1.80;1.70;;;;;;;;;;5057342;28;20235;-75
2022/11/18 04:39:37;;;;;;;1.60;1.50;;;;;;;;;;5058319;28;20248;-76
2022/11/18 04:42:05;;;;;;;1.50;1.40;;;;;;;;;;5057584;28;20303;-76
2022/11/18 04:44:33;;;;;;;1.70;1.60;;;;;;;;;;5058366;28;20244;-75
2022/11/18 04:47:02;;;;;;;1.60;1.50;;;;;;;;;;5058047;28;20267;-76
2022/11/18 04:49:30;;;;;;;1.52;1.42;;;;;;;;;;5058166;28;20267;-76
2022/11/18 04:51:58;;;;;;;1.50;1.40;;;;;;;;;;5057679;28;20211;-76
2022/11/18 04:54:28;;;;;;;1.60;1.50;;;;;;;;;;5057326;28;20205;-76
2022/11/18 04:56:56;;;;;;;1.70;1.60;;;;;;;;;;5057463;28;20295;-76
2022/11/18 04:59:25;;;;;;;1.52;1.42;;;;;;;;;;5057167;28;20276;-76
2022/11/18 05:01:53;;;;;;;1.50;1.40;;;;;;;;;;5038059;28;20233;-76
2022/11/18 05:04:22;;;;;;;1.50;1.40;;;;;;;;;;5037742;28;20476;-76
2022/11/18 05:06:49;;;;;;;1.42;1.33;;;;;;;;;;5037186;28;20210;-76
2022/11/18 05:09:17;;;;;;;1.80;1.70;;;;;;;;;;5036206;28;20629;-75
2022/11/18 05:14:31;;;;;;;1.35;1.25;;;;;;;;;;5036407;28;20501;-75
2022/11/18 05:16:59;;;;;;;1.45;1.35;;;;;;;;;;5035967;28;20212;-75
2022/11/18 05:19:26;;;;;;;1.42;1.33;;;;;;;;;;5036257;28;20210;-74
2022/11/18 05:21:54;;;;;;;1.48;1.38;;;;;;;;;;5035977;28;20212;-74
2022/11/18 05:24:23;;;;;;;1.67;1.58;;;;;;;;;;5036887;28;20202;-74
2022/11/18 05:26:51;;;;;;;1.40;1.30;;;;;;;;;;5040772;28;20205;-74
2022/11/18 05:29:19;;;;;;;1.58;1.48;;;;;;;;;;5060209;28;20205;-75
2022/11/18 05:31:46;;;;;;;1.67;1.50;;;;;;;;;;5059925;28;20215;-74
2022/11/18 05:34:14;;;;;;;1.63;1.52;;;;;;;;;;5060020;28;20217;-75
2022/11/18 05:36:42;;;;;;;1.77;1.40;;;;;;;;;;5059829;28;20205;-75
2022/11/18 05:39:10;;;;;;;1.50;1.40;;;;;;;;;;5059427;28;20211;-74
2022/11/18 05:44:23;;;;;;;1.42;1.33;;;;;;;;;;5058959;28;20203;-74
2022/11/18 05:46:50;;;;;;;1.55;1.45;;;;;;;;;;5058692;28;20215;-75
2022/11/18 05:49:18;;;;;;;1.38;1.27;;;;;;;;;;5059000;28;20204;-74
2022/11/18 05:51:45;;;;;;;2.10;1.60;;;;;;;;;;5057819;28;20205;-75
2022/11/18 05:54:14;;;;;;;1.63;1.52;;;;;;;;;;5057794;28;20228;-74
2022/11/18 05:56:43;;;;;;;1.67;1.58;;;;;;;;;;5038671;28;20606;-74
2022/11/18 05:59:11;;;;;;;1.20;1.10;;;;;;;;;;5038918;28;20237;-75
2022/11/18 06:01:43;;;;;;;1.88;1.77;;;;;;;;;;5038448;28;20648;-75
2022/11/18 06:04:15;;;;;;;1.60;1.50;;;;;;;;;;5038036;28;20193;-75
2022/11/18 06:06:42;;;;;;;1.50;1.40;;;;;;;;;;5037937;28;20209;-75
2022/11/18 06:09:11;;;;;;;1.80;1.70;;;;;;;;;;5037998;28;20567;-75
2022/11/18 06:11:40;;;;;;;1.55;1.45;;;;;;;;;;5037730;28;20216;-75
2022/11/18 06:14:10;;;;;;;1.60;1.50;;;;;;;;;;5038041;28;20225;-75
2022/11/18 06:16:40;;;;;;;1.55;1.45;;;;;;;;;;5036574;28;20249;-75
2022/11/18 06:19:09;;;;;;;1.55;1.45;;;;;;;;;;5036386;28;20205;-75
2022/11/18 06:21:36;;;;;;;1.70;1.60;;;;;;;;;;5036975;28;20215;-75
2022/11/18 06:24:04;;;;;;;1.52;1.42;;;;;;;;;;5037005;28;20198;-75
2022/11/18 06:26:31;;;;;;;1.55;1.45;;;;;;;;;;5037214;28;20205;-75
2022/11/18 06:29:02;;;;;;;1.45;1.35;;;;;;;;;;5046586;28;20201;-75
2022/11/18 06:31:32;;;;;;;1.63;1.52;;;;;;;;;;5056484;28;20640;-75
2022/11/18 06:33:59;;;;;;;1.50;1.40;;;;;;;;;;5057046;28;20252;-75
2022/11/18 06:36:28;;;;;;;1.40;1.30;;;;;;;;;;5056528;28;20260;-75
2022/11/18 06:38:56;;;;;;;1.60;1.50;;;;;;;;;;5039438;28;20213;-75
2022/11/18 06:41:23;;;;;;;1.55;1.45;;;;;;;;;;5036429;28;20206;-74
2022/11/18 06:43:50;;;;;;;1.40;1.30;;;;;;;;;;5037542;28;20208;-74
2022/11/18 06:49:03;;;;;;;1.40;1.30;;;;;;;;;;5036140;28;20193;-74
2022/11/18 06:51:32;;;;;;;1.50;1.40;;;;;;;;;;5036625;28;20201;-75
2022/11/18 06:54:00;;;;;;;1.60;1.50;;;;;;;;;;5053960;28;20221;-74
2022/11/18 06:56:27;;;;;;;1.45;1.35;;;;;;;;;;5056023;28;20197;-75
2022/11/18 06:58:55;;;;;;;1.83;1.73;;;;;;;;;;5057007;28;20244;-74
2022/11/18 07:01:23;;;;;;;1.50;1.40;;;;;;;;;;5047757;28;20618;-75
2022/11/18 07:03:51;;;;;;;1.45;1.35;;;;;;;;;;5036393;28;20194;-74
2022/11/18 07:06:19;;;;;;;1.55;1.45;;;;;;;;;;5036423;28;20202;-74
2022/11/18 07:08:48;;;;;;;1.80;1.70;;;;;;;;;;5036700;28;20201;-75
2022/11/18 07:11:17;;;;;;;1.42;1.33;;;;;;;;;;5035848;28;20221;-74
2022/11/18 07:13:45;;;;;;;1.50;1.40;;;;;;;;;;5036149;28;20240;-74
2022/11/18 07:16:13;;;;;;;1.70;1.60;;;;;;;;;;5036882;28;20216;-75
2022/11/18 07:18:41;;;;;;;1.50;1.40;;;;;;;;;;5036032;28;20213;-74
2022/11/18 07:21:10;;;;;;;1.70;1.60;;;;;;;;;;5050936;28;20202;-75
2022/11/18 07:23:37;;;;;;;1.48;1.38;;;;;;;;;;5054664;28;20617;-75
2022/11/18 07:26:07;;;;;;;1.50;1.40;;;;;;;;;;5055608;28;20208;-75
2022/11/18 07:28:34;;;;;;;1.60;1.50;;;;;;;;;;5055592;28;20219;-74
2022/11/18 07:31:03;;;;;;;1.42;1.30;;;;;;;;;;5055903;28;20657;-75
2022/11/18 07:33:30;;;;;;;1.50;1.40;;;;;;;;;;5056313;28;20225;-75
2022/11/18 07:36:01;;;;;;;1.70;1.60;;;;;;;;;;5056732;28;20216;-75
2022/11/18 07:38:29;;;;;;;1.60;1.50;;;;;;;;;;5055483;28;20255;-75
2022/11/18 07:40:56;;;;;;;1.52;1.42;;;;;;;;;;5049590;28;20201;-74
2022/11/18 07:43:25;;;;;;;1.55;1.45;;;;;;;;;;5036126;28;20201;-75
2022/11/18 07:45:52;;;;;;;1.52;1.42;;;;;;;;;;5036701;28;20221;-75
2022/11/18 07:48:20;;;;;;;1.50;1.40;;;;;;;;;;5034846;28;20198;-75
2022/11/18 07:50:48;;;;;;;1.63;1.50;;;;;;;;;;5035829;28;20217;-74
2022/11/18 07:53:15;;;;;;;1.48;1.38;;;;;;;;;;5036430;28;20535;-75
2022/11/18 07:55:43;;;;;;;1.70;1.60;;;;;;;;;;5035747;28;20205;-74
2022/11/18 07:58:10;;;;;;;1.83;1.73;;;;;;;;;;5036273;28;20201;-75
2022/11/18 08:00:39;;;;;;;1.58;1.48;;;;;;;;;;5035243;28;20247;-75
2022/11/18 08:03:06;;;;;;;1.60;1.50;;;;;;;;;;5034707;28;20205;-74
2022/11/18 08:05:34;;;;;;;2.33;1.70;;;;;;;;;;5035975;28;20206;-75
2022/11/18 08:08:01;;;;;;;4.20;3.80;;;;;;;;;;5035776;28;20208;-75
2022/11/18 08:10:28;;;;;;;8.85;7.95;;;;;;;;;;5037228;28;20215;-75
2022/11/18 08:12:57;;;;;;;7.18;6.47;;;;;;;;;;5055085;28;20208;-74
2022/11/18 08:15:24;;;;;;;7.35;6.65;;;;;;;;;;5055684;28;20590;-75
2022/11/18 08:17:53;;;;;;;8.13;6.90;;;;;;;;;;5052927;28;20197;-75
2022/11/18 08:20:21;;;;;;;7.18;6.45;;;;;;;;;;5055325;28;20300;-75
2022/11/18 08:22:49;;;;;;;7.22;6.32;;;;;;;;;;5054728;28;20227;-75
2022/11/18 08:25:16;;;;;;;6.25;5.65;;;;;;;;;;5054346;28;20205;-75
2022/11/18 08:27:43;;;;;;;6.60;6.00;;;;;;;;;;5055429;28;20197;-75
2022/11/18 08:30:12;;;;;;;6.20;5.63;;;;;;;;;;5055841;28;20201;-75
2022/11/18 08:32:39;;;;;;;5.82;5.32;;;;;;;;;;5055228;28;20205;-75
2022/11/18 08:35:08;;;;;;;6.30;5.57;;;;;;;;;;5054962;28;20235;-75
2022/11/18 08:37:35;;;;;;;31.25;27.95;;;;;;;;;;5054487;28;20714;-75
2022/11/18 08:40:03;;;;;;;84.15;74.60;;;;;;;;;;5036958;28;20470;-74
2022/11/18 08:42:30;;;;;;;66.57;59.33;;;;;;;;;;5034762;28;20209;-75
2022/11/18 08:44:58;;;;;;;93.88;84.20;;;;;;;;;;5034665;28;20224;-75
2022/11/18 08:47:25;;;;;;;100.03;89.95;;;;;;;;;;5035027;28;20591;-75
2022/11/18 08:49:52;;;;;;;84.55;75.82;;;;;;;;;;5050150;28;20460;-75
2022/11/18 08:52:21;;;;;;;83.82;75.07;;;;;;;;;;5054288;28;20208;-75
2022/11/18 08:54:48;;;;;;;76.55;68.53;;;;;;;;;;5054230;28;20330;-75
2022/11/18 08:57:16;;;;;;;76.47;68.55;;;;;;;;;;5054808;28;20219;-75
2022/11/18 08:59:43;;;;;;;71.22;63.75;;;;;;;;;;5052227;28;20509;-75
2022/11/18 09:02:14;;;;;;;69.30;62.20;;;;;;;;;;5034493;28;20205;-74
2022/11/18 09:04:42;;;;;;;66.03;59.13;;;;;;;;;;5034416;28;20732;-75
2022/11/18 09:07:09;;;;;;;63.90;57.20;;;;;;;;;;5047063;28;20207;-74
2022/11/18 09:09:38;;;;;;;63.45;57.00;;;;;;;;;;5054580;28;20209;-75
2022/11/18 09:12:06;;;;;;;62.53;55.97;;;;;;;;;;5054393;28;20209;-74
2022/11/18 09:14:33;;;;;;;60.67;54.53;;;;;;;;;;5053737;28;20624;-74
2022/11/18 09:17:00;;;;;;;57.40;51.63;;;;;;;;;;5050120;28;20593;-75
2022/11/18 09:19:28;;;;;;;56.70;50.78;;;;;;;;;;5034625;28;20202;-75
2022/11/18 09:21:55;;;;;;;54.38;48.83;;;;;;;;;;5035269;28;20205;-75
2022/11/18 09:24:22;;;;;;;51.97;46.85;;;;;;;;;;5034733;28;20201;-75
2022/11/18 09:26:52;;;;;;;52.78;47.47;;;;;;;;;;5034465;28;20206;-75
2022/11/18 09:29:24;;;;;;;47.65;42.85;;;;;;;;;;5035159;28;20229;-74
2022/11/18 09:31:51;;;;;;;46.95;42.10;;;;;;;;;;5034561;28;20198;-75
2022/11/18 09:34:19;;;;;;;45.50;40.83;;;;;;;;;;5040217;28;20228;-75
2022/11/18 09:36:46;;;;;;;44.30;39.88;;;;;;;;;;5054756;28;20215;-75
2022/11/18 09:39:13;;;;;;;41.63;37.42;;;;;;;;;;5052846;28;20648;-75
2022/11/18 09:41:45;;;;;;;39.65;35.75;;;;;;;;;;5054163;28;20211;-75
2022/11/18 09:44:19;;;;;;;40.45;36.40;;;;;;;;;;5054239;28;20211;-75
2022/11/18 09:46:52;;;;;;;42.40;38.20;;;;;;;;;;5051470;28;20219;-75
2022/11/18 09:49:27;;;;;;;40.30;36.38;;;;;;;;;;5054671;28;20211;-75
2022/11/18 09:51:54;;;;;;;37.75;33.85;;;;;;;;;;5053950;28;20483;-75
2022/11/18 09:54:23;;;;;;;36.85;33.05;;;;;;;;;;5053778;28;20245;-75
2022/11/18 09:56:51;;;;;;;35.15;31.55;;;;;;;;;;5054102;28;20228;-75
2022/11/18 09:59:21;;;;;;;34.72;31.35;;;;;;;;;;5054224;28;20241;-75
2022/11/18 10:01:49;;;;;;;33.60;30.25;;;;;;;;;;5046731;28;20197;-74
2022/11/18 10:04:17;;;;;;;32.75;29.35;;;;;;;;;;5039356;28;20503;-74
2022/11/18 10:06:45;;;;;;;31.63;28.63;;;;;;;;;;5033619;28;20206;-75
2022/11/18 10:09:22;;;;;;;31.60;28.50;;;;;;;;;;5037895;28;20201;-75
2022/11/18 10:11:58;;;;;;;29.85;26.95;;;;;;;;;;5054740;28;20461;-75
2022/11/18 10:14:33;;;;;;;29.77;26.77;;;;;;;;;;5056587;28;20640;-75
2022/11/18 10:17:03;;;;;;;28.10;25.40;;;;;;;;;;5056534;28;20208;-75
2022/11/18 10:19:34;;;;;;;27.98;25.30;;;;;;;;;;5056592;28;20304;-75
2022/11/18 10:22:08;;;;;;;27.27;24.67;;;;;;;;;;5055311;28;20201;-75
2022/11/18 10:24:38;;;;;;;25.33;22.92;;;;;;;;;;5056479;28;20201;-75
2022/11/18 10:27:09;;;;;;;25.67;23.17;;;;;;;;;;5056911;28;20664;-75
2022/11/18 10:29:38;;;;;;;25.45;23.05;;;;;;;;;;5057321;28;20205;-75
2022/11/18 10:32:07;;;;;;;23.92;21.67;;;;;;;;;;5056576;28;20205;-75
2022/11/18 10:34:35;;;;;;;23.85;21.48;;;;;;;;;;5056330;28;20225;-75
2022/11/18 10:37:03;;;;;;;21.77;19.77;;;;;;;;;;5056139;28;20211;-75
2022/11/18 10:39:31;;;;;;;21.35;19.33;;;;;;;;;;5056564;28;20215;-75
2022/11/18 10:42:01;;;;;;;21.63;19.63;;;;;;;;;;5056187;28;20201;-75
2022/11/18 10:44:29;;;;;;;20.30;18.40;;;;;;;;;;5056830;28;20572;-75
2022/11/18 10:47:15;;;;;;;20.95;18.95;;;;;;;;;;5050587;28;20211;-75
2022/11/18 10:49:43;;;;;;;19.80;17.90;;;;;;;;;;5036586;28;20205;-75
2022/11/18 10:52:11;;;;;;;19.50;17.63;;;;;;;;;;5035819;28;20205;-75
2022/11/18 10:54:39;;;;;;;19.45;17.65;;;;;;;;;;5045236;28;20224;-75
2022/11/18 10:57:07;;;;;;;18.05;16.40;;;;;;;;;;5040233;28;20202;-75
2022/11/18 10:59:35;;;;;;;18.25;16.55;;;;;;;;;;5056019;28;20645;-75
2022/11/18 11:02:15;;;;;;;17.38;15.77;;;;;;;;;;5042766;28;20202;-75
2022/11/18 11:04:42;;;;;;;16.83;15.32;;;;;;;;;;5036057;28;20288;-75
2022/11/18 11:07:18;;;;;;;16.55;14.98;;;;;;;;;;5051493;28;20201;-75
2022/11/18 11:09:45;;;;;;;16.45;14.98;;;;;;;;;;5055218;28;20551;-75
2022/11/18 11:12:15;;;;;;;16.60;15.07;;;;;;;;;;5055192;28;20213;-75
2022/11/18 11:14:46;;;;;;;15.70;14.30;;;;;;;;;;5055241;28;20225;-75
2022/11/18 11:17:17;;;;;;;15.38;14.07;;;;;;;;;;5044980;28;20216;-75
2022/11/18 11:19:49;;;;;;;43.00;38.97;;;;;;;;;;5055275;28;20601;-74
2022/11/18 11:22:17;;;;;;;32.58;29.55;;;;;;;;;;5055149;28;20213;-75
2022/11/18 11:24:46;;;;;;;28.58;25.90;;;;;;;;;;5055147;28;20227;-75
2022/11/18 11:27:22;;;;;;;27.08;24.58;;;;;;;;;;5039238;28;20687;-75
2022/11/18 11:30:04;;;;;;;25.77;23.38;;;;;;;;;;5036031;28;20837;-75
2022/11/18 11:32:39;;;;;;;25.75;23.35;;;;;;;;;;5042696;28;20197;-75
2022/11/18 11:35:11;;;;;;;25.23;22.67;;;;;;;;;;5034986;28;20320;-75
2022/11/18 11:37:45;;;;;;;23.98;21.77;;;;;;;;;;5052126;28;20201;-75
2022/11/18 11:40:21;;;;;;;22.35;20.30;;;;;;;;;;5055039;28;20208;-75
2022/11/18 11:42:53;;;;;;;22.60;20.40;;;;;;;;;;5055241;28;20682;-75
2022/11/18 11:45:25;;;;;;;22.42;20.33;;;;;;;;;;5055173;28;20207;-75
2022/11/18 11:48:10;;;;;;;20.92;18.98;;;;;;;;;;5055451;28;20204;-75
2022/11/18 11:50:53;;;;;;;21.27;19.27;;;;;;;;;;5055021;28;20201;-75
2022/11/18 11:53:26;;;;;;;20.15;18.25;;;;;;;;;;5055394;28;20201;-75
2022/11/18 11:56:00;;;;;;;20.05;18.15;;;;;;;;;;5054869;28;20259;-75
2022/11/18 11:58:34;;;;;;;20.60;18.65;;;;;;;;;;5054542;28;20205;-75
2022/11/18 12:01:05;;;;;;;19.08;17.05;;;;;;;;;;5034616;28;20205;-75
2022/11/18 12:03:44;;;;;;;19.05;17.25;;;;;;;;;;5034502;28;20201;-74
2022/11/18 12:06:13;;;;;;;19.08;17.25;;;;;;;;;;5034444;28;20201;-75
2022/11/18 12:08:49;;;;;;;18.13;16.23;;;;;;;;;;5034467;28;20205;-75
2022/11/18 12:11:20;;;;;;;17.55;15.95;;;;;;;;;;5034576;28;20197;-75
2022/11/18 12:13:51;;;;;;;17.42;14.90;;;;;;;;;;5033415;28;20197;-75
2022/11/18 12:16:25;;;;;;;17.10;15.30;;;;;;;;;;5034115;28;20229;-75
2022/11/18 12:18:58;;;;;;;16.25;14.50;;;;;;;;;;5033920;28;20196;-75
2022/11/18 12:21:44;;;;;;;16.02;14.45;;;;;;;;;;5020930;28;20201;-75
2022/11/18 12:24:32;;;;;;;15.48;13.98;;;;;;;;;;5033994;28;20574;-75
2022/11/18 12:27:00;;;;;;;15.98;13.43;;;;;;;;;;5034114;28;20205;-75
2022/11/18 12:29:28;;;;;;;15.45;13.43;;;;;;;;;;5032500;28;20229;-75
2022/11/18 12:31:57;;;;;;;14.98;13.52;;;;;;;;;;5032220;28;20456;-75
2022/11/18 12:34:30;;;;;;;14.45;12.95;;;;;;;;;;5033683;28;20677;-75
2022/11/18 12:36:57;;;;;;;14.43;12.50;;;;;;;;;;5016614;28;20712;-75
2022/11/18 12:39:58;;;;;;;14.25;12.27;;;;;;;;;;5013434;28;20297;-75
2022/11/18 12:45:54;;;;;;;12.52;11.32;;;;;;;;;;5013494;28;20217;-75
2022/11/18 12:48:31;;;;;;;13.05;11.57;;;;;;;;;;4937670;29;20205;-75
2022/11/18 12:50:59;;;;;;;12.15;10.85;;;;;;;;;;5009026;28;20197;-75
2022/11/18 12:53:41;;;;;;;13.00;11.27;;;;;;;;;;5013176;28;20207;-75
2022/11/18 12:56:13;;;;;;;12.30;10.75;;;;;;;;;;5010667;28;20284;-75
2022/11/18 12:58:45;;;;;;;11.45;10.18;;;;;;;;;;5015083;28;20190;-75
2022/11/18 13:01:13;;;;;;;11.45;10.35;;;;;;;;;;5034147;28;20209;-74
2022/11/18 13:03:40;;;;;;;11.18;9.98;;;;;;;;;;5032624;28;20209;-75
2022/11/18 13:06:13;;;;;;;12.50;9.50;;;;;;;;;;5046429;28;20197;-75
2022/11/18 13:08:42;;;;;;;10.55;9.55;;;;;;;;;;5052973;28;20295;-75
2022/11/18 13:19:23;;;;;;;9.57;8.20;;;;;;;;;;5034432;28;20201;-75
2022/11/18 13:24:44;;;;;;;9.63;8.63;;;;;;;;;;5034175;28;20251;-75
2022/11/18 13:27:17;;;;;;;8.18;7.38;;;;;;;;;;5034017;28;20205;-75
2022/11/18 13:29:48;;;;;;;10.32;8.48;;;;;;;;;;5033615;28;20201;-74
2022/11/18 13:32:21;;;;;;;8.10;7.30;;;;;;;;;;5045955;28;20488;-74
2022/11/18 13:34:49;;;;;;;9.00;7.90;;;;;;;;;;5052414;28;20317;-75
2022/11/18 13:37:18;;;;;;;8.63;7.28;;;;;;;;;;5051198;28;20201;-75
2022/11/18 13:39:47;;;;;;;7.40;6.55;;;;;;;;;;5033495;28;20189;-74
2022/11/18 13:42:16;;;;;;;8.48;7.53;;;;;;;;;;5043738;28;20505;-74
2022/11/18 13:44:46;;;;;;;8.80;7.18;;;;;;;;;;5050892;28;20193;-74
2022/11/18 13:47:21;;;;;;;7.43;6.55;;;;;;;;;;5052972;28;20197;-74
2022/11/18 13:49:52;;;;;;;6.63;5.93;;;;;;;;;;5042532;28;20636;-74
2022/11/18 13:52:22;;;;;;;7.82;6.40;;;;;;;;;;5046641;28;20583;-74
2022/11/18 13:54:51;;;;;;;6.80;6.20;;;;;;;;;;5050774;28;20198;-75
2022/11/18 13:57:19;;;;;;;6.30;5.68;;;;;;;;;;5057005;28;20193;-74
2022/11/18 13:59:49;;;;;;;6.45;5.80;;;;;;;;;;5041423;28;20307;-74
2022/11/18 14:02:17;;;;;;;6.03;5.47;;;;;;;;;;5037866;28;20212;-75
2022/11/18 14:04:53;;;;;;;6.38;5.78;;;;;;;;;;5038108;28;20204;-75
2022/11/18 14:07:25;;;;;;;6.72;5.75;;;;;;;;;;5036763;28;20215;-75
2022/11/18 14:09:54;;;;;;;6.00;5.43;;;;;;;;;;5036931;28;20228;-75
2022/11/18 14:12:23;;;;;;;5.53;4.95;;;;;;;;;;5036805;28;20206;-75
2022/11/18 14:14:52;;;;;;;5.60;5.00;;;;;;;;;;5037224;28;20201;-74
2022/11/18 14:17:21;;;;;;;5.00;4.60;;;;;;;;;;5037607;28;20316;-75
2022/11/18 14:19:49;;;;;;;5.10;4.60;;;;;;;;;;5036582;28;20209;-74
2022/11/18 14:22:18;;;;;;;5.18;4.68;;;;;;;;;;5046089;28;20482;-74
2022/11/18 14:24:54;;;;;;;4.30;3.90;;;;;;;;;;5056233;28;20295;-75
2022/11/18 14:27:39;;;;;;;4.88;4.38;;;;;;;;;;5055874;28;20201;-74
2022/11/18 14:30:29;;;;;;;4.35;4.00;;;;;;;;;;5055763;28;20205;-75
2022/11/18 14:33:20;;;;;;;5.25;4.38;;;;;;;;;;5036672;28;20296;-75
2022/11/18 14:35:51;;;;;;;4.00;3.67;;;;;;;;;;5036089;28;20622;-75
2022/11/18 14:38:21;;;;;;;4.25;3.85;;;;;;;;;;5036627;28;20202;-75
2022/11/18 14:40:54;;;;;;;4.10;3.70;;;;;;;;;;5035086;28;20596;-75
2022/11/18 14:43:21;;;;;;;3.95;3.53;;;;;;;;;;5052070;28;20203;-75
2022/11/18 14:45:50;;;;;;;3.90;3.50;;;;;;;;;;5039851;28;20189;-75
2022/11/18 14:48:20;;;;;;;3.80;3.50;;;;;;;;;;5047912;28;20198;-75
2022/11/18 14:50:47;;;;;;;3.50;3.20;;;;;;;;;;5035442;28;20655;-75
2022/11/18 14:53:15;;;;;;;3.70;3.40;;;;;;;;;;5052152;28;20212;-75
2022/11/18 14:55:42;;;;;;;3.60;3.30;;;;;;;;;;5055865;28;20251;-75
2022/11/18 14:58:13;;;;;;;3.70;3.20;;;;;;;;;;5055365;28;20201;-75
2022/11/18 15:00:41;;;;;;;3.33;3.03;;;;;;;;;;5051028;28;20228;-74
2022/11/18 15:03:10;;;;;;;3.45;3.15;;;;;;;;;;5039865;28;20201;-75
2022/11/18 15:05:37;;;;;;;3.08;2.80;;;;;;;;;;5042711;28;20478;-75
2022/11/18 15:08:05;;;;;;;3.40;3.08;;;;;;;;;;5055357;28;20201;-74
2022/11/18 15:10:33;;;;;;;3.38;3.15;;;;;;;;;;5054054;28;20196;-75
2022/11/18 15:13:00;;;;;;;3.30;2.95;;;;;;;;;;5050836;28;20208;-75
2022/11/18 15:15:28;;;;;;;3.20;2.90;;;;;;;;;;5054978;28;20216;-75
2022/11/18 15:17:55;;;;;;;3.80;3.50;;;;;;;;;;5055377;28;20219;-75
2022/11/18 15:20:24;;;;;;;3.72;3.42;;;;;;;;;;5054577;28;20250;-75